createdAt,value
2018-04-18T00:01:24.833Z,12.67
2018-04-18T00:03:52.242Z,12.67
2018-04-18T00:06:19.699Z,14.63
2018-04-18T00:08:47.138Z,15.20
2018-04-18T00:11:14.620Z,11.93
2018-04-18T00:13:42.051Z,15.17
2018-04-18T00:16:09.499Z,10.23
2018-04-18T00:18:37.707Z,11.07
2018-04-18T00:21:05.161Z,9.73
2018-04-18T00:23:32.613Z,12.53
2018-04-18T00:26:00.083Z,15.93
2018-04-18T00:28:27.535Z,7.13
2018-04-18T00:30:54.968Z,9.33
2018-04-18T00:33:22.466Z,8.10
2018-04-18T00:35:49.903Z,12.88
2018-04-18T00:38:17.341Z,11.83
2018-04-18T00:40:44.799Z,11.27
2018-04-18T00:43:13.072Z,7.47
2018-04-18T00:45:40.559Z,12.73
2018-04-18T00:48:08.007Z,8.33
2018-04-18T00:50:35.438Z,9.50
2018-04-18T00:53:02.932Z,10.00
2018-04-18T00:55:30.378Z,14.67
2018-04-18T00:57:57.832Z,12.90
2018-04-18T01:00:25.303Z,10.53
2018-04-18T01:02:52.753Z,10.43
2018-04-18T01:05:20.201Z,7.63
2018-04-18T01:07:47.741Z,10.67
2018-04-18T01:10:15.170Z,11.80
2018-04-18T01:12:42.603Z,14.07
2018-04-18T01:15:10.796Z,17.70
2018-04-18T01:17:38.285Z,8.40
2018-04-18T01:20:05.747Z,9.77
2018-04-18T01:22:33.214Z,11.60
2018-04-18T01:25:00.630Z,10.83
2018-04-18T01:27:28.119Z,12.63
2018-04-18T01:29:56.343Z,13.27
2018-04-18T01:32:23.934Z,18.20
2018-04-18T01:34:52.177Z,10.40
2018-04-18T01:37:19.597Z,10.83
2018-04-18T01:39:47.027Z,12.27
2018-04-18T01:42:15.244Z,8.57
2018-04-18T01:44:42.701Z,13.80
2018-04-18T01:47:10.150Z,9.93
2018-04-18T01:49:37.606Z,16.07
2018-04-18T01:52:05.071Z,11.13
2018-04-18T01:54:32.523Z,11.77
2018-04-18T01:56:59.974Z,12.15
2018-04-18T01:59:27.398Z,13.10
2018-04-18T02:01:54.915Z,14.40
2018-04-18T02:04:22.354Z,10.93
2018-04-18T02:06:49.829Z,12.80
2018-04-18T02:09:17.377Z,13.00
2018-04-18T02:11:44.817Z,17.37
2018-04-18T02:14:12.253Z,11.27
2018-04-18T02:16:39.746Z,11.57
2018-04-18T02:19:07.319Z,10.60
2018-04-18T02:21:34.775Z,13.33
2018-04-18T02:24:02.225Z,12.77
2018-04-18T02:26:29.681Z,12.30
2018-04-18T02:28:57.127Z,15.17
2018-04-18T02:31:24.555Z,8.97
2018-04-18T02:33:51.979Z,16.33
2018-04-18T02:36:19.411Z,9.50
2018-04-18T02:38:46.850Z,11.37
2018-04-18T02:41:14.284Z,9.67
2018-04-18T02:43:41.713Z,8.47
2018-04-18T02:46:09.903Z,9.10
2018-04-18T02:48:38.125Z,9.17
2018-04-18T02:51:05.571Z,9.83
2018-04-18T02:53:32.999Z,8.80
2018-04-18T02:56:00.488Z,6.03
2018-04-18T02:58:27.946Z,6.13
2018-04-18T03:00:55.351Z,8.27
2018-04-18T03:03:22.795Z,8.30
2018-04-18T03:05:50.226Z,4.27
2018-04-18T03:08:17.687Z,11.50
2018-04-18T03:10:45.143Z,5.00
2018-04-18T03:13:12.605Z,9.33
2018-04-18T03:15:40.043Z,10.80
2018-04-18T03:18:07.511Z,10.27
2018-04-18T03:20:34.947Z,7.47
2018-04-18T03:23:02.435Z,9.30
2018-04-18T03:25:29.887Z,6.10
2018-04-18T03:27:57.329Z,8.60
2018-04-18T03:30:24.799Z,10.93
2018-04-18T03:32:52.267Z,14.00
2018-04-18T03:35:19.711Z,9.63
2018-04-18T03:37:47.152Z,5.47
2018-04-18T03:40:14.591Z,11.00
2018-04-18T03:42:42.815Z,5.67
2018-04-18T03:45:10.258Z,12.43
2018-04-18T03:47:37.693Z,7.87
2018-04-18T03:50:05.172Z,6.90
2018-04-18T03:52:32.609Z,8.17
2018-04-18T03:55:00.043Z,6.93
2018-04-18T03:57:28.251Z,10.17
2018-04-18T03:59:55.723Z,9.60
2018-04-18T04:02:23.223Z,5.93
2018-04-18T04:04:50.612Z,11.90
2018-04-18T04:07:18.053Z,8.27
2018-04-18T04:09:46.234Z,9.17
2018-04-18T04:12:13.660Z,10.10
2018-04-18T04:14:41.095Z,10.87
2018-04-18T04:17:34.153Z,10.23
2018-04-18T04:20:13.395Z,10.70
2018-04-18T04:22:52.807Z,6.67
2018-04-18T04:25:20.255Z,11.20
2018-04-18T04:27:47.729Z,7.17
2018-04-18T04:30:15.169Z,11.43
2018-04-18T04:32:42.599Z,10.10
2018-04-18T04:35:10.035Z,8.73
2018-04-18T04:37:38.239Z,9.67
2018-04-18T04:40:05.723Z,7.07
2018-04-18T04:42:33.190Z,8.87
2018-04-18T04:45:00.664Z,7.63
2018-04-18T04:47:28.063Z,11.00
2018-04-18T04:49:56.246Z,6.57
2018-04-18T04:52:23.680Z,14.03
2018-04-18T04:54:51.898Z,13.03
2018-04-18T04:57:19.367Z,7.17
2018-04-18T04:59:46.833Z,9.70
2018-04-18T05:02:14.275Z,11.97
2018-04-18T05:04:41.723Z,9.60
2018-04-18T05:07:09.145Z,9.17
2018-04-18T05:09:37.339Z,11.97
2018-04-18T05:12:04.851Z,10.57
2018-04-18T05:14:32.278Z,13.97
2018-04-18T05:16:59.711Z,16.07
2018-04-18T05:19:27.203Z,12.57
2018-04-18T05:21:54.666Z,13.07
2018-04-18T05:24:22.198Z,12.90
2018-04-18T05:26:49.655Z,18.43
2018-04-18T05:29:17.112Z,13.20
2018-04-18T05:31:44.591Z,15.30
2018-04-18T05:34:12.031Z,13.13
2018-04-18T05:36:39.487Z,14.63
2018-04-18T05:39:06.919Z,15.23
2018-04-18T05:41:34.419Z,15.03
2018-04-18T05:44:01.860Z,13.93
2018-04-18T05:46:29.334Z,15.10
2018-04-18T05:48:56.794Z,10.63
2018-04-18T05:51:24.245Z,13.30
2018-04-18T05:53:51.680Z,12.33
2018-04-18T05:56:19.157Z,12.53
2018-04-18T05:58:46.575Z,9.70
2018-04-18T06:01:14.025Z,12.57
2018-04-18T06:03:42.246Z,17.07
2018-04-18T06:06:09.766Z,14.50
2018-04-18T06:08:37.177Z,22.57
2018-04-18T06:11:04.688Z,19.83
2018-04-18T06:13:32.136Z,21.10
2018-04-18T06:16:00.347Z,18.03
2018-04-18T06:18:27.901Z,21.87
2018-04-18T06:20:55.343Z,20.13
2018-04-18T06:23:22.787Z,23.17
2018-04-18T06:25:50.237Z,20.23
2018-04-18T06:28:18.451Z,23.60
2018-04-18T06:30:45.897Z,21.37
2018-04-18T06:33:13.335Z,26.30
2018-04-18T06:35:40.828Z,21.37
2018-04-18T06:38:08.290Z,25.60
2018-04-18T06:40:35.738Z,29.43
2018-04-18T06:43:03.190Z,22.10
2018-04-18T06:45:30.688Z,23.20
2018-04-18T06:47:58.140Z,22.73
2018-04-18T06:50:25.577Z,27.30
2018-04-18T06:52:53.028Z,24.47
2018-04-18T06:55:20.455Z,24.30
2018-04-18T06:57:47.912Z,23.93
2018-04-18T07:00:15.370Z,25.07
2018-04-18T07:02:42.817Z,22.27
2018-04-18T07:05:11.016Z,20.93
2018-04-18T07:07:38.511Z,25.13
2018-04-18T07:10:05.964Z,23.63
2018-04-18T07:12:33.527Z,26.33
2018-04-18T07:15:00.981Z,22.70
2018-04-18T07:17:28.421Z,23.70
2018-04-18T07:19:55.879Z,23.20
2018-04-18T07:22:23.504Z,25.83
2018-04-18T07:24:51.700Z,28.70
2018-04-18T07:27:19.143Z,27.90
2018-04-18T07:29:46.577Z,21.87
2018-04-18T07:32:14.784Z,29.03
2018-04-18T07:34:42.215Z,22.80
2018-04-18T07:37:10.490Z,26.33
2018-04-18T07:39:37.963Z,24.57
2018-04-18T07:42:05.432Z,20.33
2018-04-18T07:44:32.883Z,24.63
2018-04-18T07:47:00.314Z,19.23
2018-04-18T07:49:27.755Z,18.43
2018-04-18T07:51:55.199Z,23.60
2018-04-18T07:54:22.634Z,29.23
2018-04-18T07:56:50.180Z,19.00
2018-04-18T07:59:17.649Z,22.97
2018-04-18T08:01:45.087Z,21.95
2018-04-18T08:04:12.527Z,23.10
2018-04-18T08:06:39.959Z,21.00
2018-04-18T08:09:08.151Z,20.37
2018-04-18T08:11:35.643Z,16.10
2018-04-18T08:14:03.078Z,19.67
2018-04-18T08:16:30.528Z,24.80
2018-04-18T08:18:57.950Z,21.43
2018-04-18T08:21:26.181Z,22.07
2018-04-18T08:23:53.672Z,20.07
2018-04-18T08:26:21.117Z,21.33
2018-04-18T08:28:48.552Z,19.00
2018-04-18T08:31:15.982Z,20.97
2018-04-18T08:33:43.548Z,16.67
2018-04-18T08:36:10.979Z,18.70
2018-04-18T08:38:39.199Z,22.83
2018-04-18T08:41:06.664Z,19.50
2018-04-18T08:43:34.116Z,18.30
2018-04-18T08:46:01.548Z,20.90
2018-04-18T08:48:28.979Z,16.73
2018-04-18T08:50:57.227Z,20.63
2018-04-18T08:53:24.705Z,19.37
2018-04-18T08:55:52.142Z,15.80
2018-04-18T08:58:20.336Z,12.37
2018-04-18T09:00:47.820Z,11.50
2018-04-18T09:03:15.261Z,16.10
2018-04-18T09:05:42.708Z,14.03
2018-04-18T09:08:10.187Z,15.63
2018-04-18T09:10:37.638Z,16.53
2018-04-18T09:13:05.075Z,10.37
2018-04-18T09:15:32.557Z,11.73
2018-04-18T09:18:00.004Z,19.48
2018-04-18T09:20:27.439Z,14.82
2018-04-18T09:22:54.935Z,14.13
2018-04-18T09:25:22.399Z,13.73
2018-04-18T09:27:49.841Z,13.25
2018-04-18T09:30:17.304Z,12.70
2018-04-18T09:32:44.755Z,10.98
2018-04-18T09:35:12.187Z,12.95
2018-04-18T09:37:39.620Z,12.18
2018-04-18T09:40:07.821Z,12.77
2018-04-18T09:42:35.267Z,12.98
2018-04-18T09:45:02.703Z,9.68
2018-04-18T09:47:30.919Z,9.40
2018-04-18T09:49:58.396Z,9.15
2018-04-18T09:52:25.823Z,11.50
2018-04-18T09:54:53.255Z,18.70
2018-04-18T09:57:21.471Z,11.90
2018-04-18T09:59:48.911Z,15.45
2018-04-18T10:02:18.149Z,15.02
2018-04-18T10:04:45.567Z,15.85
2018-04-18T10:07:13.027Z,11.50
2018-04-18T10:09:40.461Z,14.05
2018-04-18T10:12:08.668Z,13.88
2018-04-18T10:14:36.136Z,14.77
2018-04-18T10:17:03.611Z,9.95
2018-04-18T10:19:31.160Z,11.65
2018-04-18T10:21:58.623Z,13.30
2018-04-18T10:24:26.171Z,8.45
2018-04-18T10:26:53.675Z,13.90
2018-04-18T10:29:21.910Z,12.02
2018-04-18T10:31:49.354Z,11.48
2018-04-18T10:34:16.819Z,14.77
2018-04-18T10:36:44.263Z,14.38
2018-04-18T10:39:11.708Z,13.43
2018-04-18T10:41:39.157Z,11.02
2018-04-18T10:44:06.643Z,12.95
2018-04-18T10:46:34.099Z,11.40
2018-04-18T10:49:01.561Z,9.52
2018-04-18T10:51:29.009Z,13.70
2018-04-18T10:53:56.509Z,12.52
2018-04-18T10:56:23.947Z,9.73
2018-04-18T10:58:51.383Z,11.45
2018-04-18T11:01:18.841Z,10.73
2018-04-18T11:03:46.292Z,10.90
2018-04-18T11:06:13.799Z,9.48
2018-04-18T11:08:41.223Z,9.40
2018-04-18T11:11:08.665Z,10.23
2018-04-18T11:13:36.138Z,8.20
2018-04-18T11:16:03.599Z,8.10
2018-04-18T11:18:31.046Z,11.68
2018-04-18T11:20:58.497Z,7.37
2018-04-18T11:23:25.955Z,8.27
2018-04-18T11:25:53.404Z,8.85
2018-04-18T11:28:20.844Z,8.55
2018-04-18T11:30:48.335Z,10.68
2018-04-18T11:33:15.787Z,10.98
2018-04-18T11:35:43.248Z,11.77
2018-04-18T11:38:10.685Z,11.77
2018-04-18T11:40:38.127Z,10.05
2018-04-18T11:43:05.582Z,10.73
2018-04-18T11:45:33.811Z,13.40
2018-04-18T11:48:01.251Z,10.55
2018-04-18T11:50:28.734Z,28.40
2018-04-18T11:52:56.189Z,10.05
2018-04-18T11:55:23.617Z,16.33
2018-04-18T11:57:51.106Z,12.00
2018-04-18T12:00:18.660Z,13.32
2018-04-18T12:02:46.125Z,15.13
2018-04-18T12:05:13.559Z,17.45
2018-04-18T12:07:41.004Z,15.13
2018-04-18T12:10:08.471Z,13.52
2018-04-18T12:12:36.023Z,16.77
2018-04-18T12:15:03.481Z,14.87
2018-04-18T12:17:30.925Z,16.30
2018-04-18T12:19:58.366Z,15.88
2018-04-18T12:22:26.563Z,15.13
2018-04-18T12:24:54.039Z,12.15
2018-04-18T12:27:21.491Z,11.20
2018-04-18T12:29:48.957Z,15.57
2018-04-18T12:32:16.400Z,11.93
2018-04-18T12:34:43.876Z,17.10
2018-04-18T12:37:11.319Z,11.80
2018-04-18T12:39:38.821Z,13.77
2018-04-18T12:42:07.059Z,10.88
2018-04-18T12:44:34.539Z,14.20
2018-04-18T12:47:01.971Z,10.05
2018-04-18T12:49:29.430Z,12.52
2018-04-18T12:51:56.869Z,14.52
2018-04-18T12:54:24.322Z,17.98
2018-04-18T12:56:51.811Z,13.68
2018-04-18T12:59:19.255Z,15.18
2018-04-18T13:01:46.702Z,15.27
2018-04-18T13:04:14.137Z,18.95
2018-04-18T13:06:41.571Z,18.42
2018-04-18T13:09:09.815Z,16.27
2018-04-18T13:11:37.267Z,20.45
2018-04-18T13:14:04.736Z,16.52
2018-04-18T13:16:32.178Z,13.48
2018-04-18T13:18:59.636Z,15.35
2018-04-18T13:21:27.087Z,12.65
2018-04-18T13:23:54.559Z,13.45
2018-04-18T13:26:22.023Z,11.57
2018-04-18T13:28:49.495Z,15.85
2018-04-18T13:31:16.926Z,13.35
2018-04-18T13:33:44.379Z,15.57
2018-04-18T13:36:11.827Z,14.65
2018-04-18T13:38:39.284Z,15.20
2018-04-18T13:41:06.743Z,17.40
2018-04-18T13:43:34.193Z,30.45
2018-04-18T13:46:01.665Z,19.83
2018-04-18T13:48:29.111Z,18.05
2018-04-18T13:50:56.551Z,23.85
2018-04-18T13:53:23.983Z,16.52
2018-04-18T13:55:52.182Z,15.10
2018-04-18T13:58:19.651Z,11.98
2018-04-18T14:00:47.123Z,14.48
2018-04-18T14:03:14.579Z,11.75
2018-04-18T14:05:42.046Z,14.07
2018-04-18T14:08:09.507Z,16.52
2018-04-18T14:10:36.960Z,11.20
2018-04-18T14:13:04.385Z,12.63
2018-04-18T14:15:31.821Z,12.80
2018-04-18T14:17:59.383Z,13.57
2018-04-18T14:20:26.834Z,21.17
2018-04-18T14:22:54.280Z,13.82
2018-04-18T14:25:21.738Z,16.62
2018-04-18T14:27:49.197Z,25.02
2018-04-18T14:30:16.633Z,24.45
2018-04-18T14:32:44.075Z,21.80
2018-04-18T14:35:12.270Z,28.50
2018-04-18T14:37:39.733Z,20.27
2018-04-18T14:40:07.935Z,23.52
2018-04-18T14:42:35.387Z,22.13
2018-04-18T14:45:02.833Z,31.77
2018-04-18T14:47:30.264Z,34.70
2018-04-18T14:49:57.711Z,23.33
2018-04-18T14:52:25.154Z,26.17
2018-04-18T14:54:53.360Z,20.30
2018-04-18T14:57:20.800Z,25.65
2018-04-18T14:59:49.010Z,24.23
2018-04-18T15:02:16.445Z,23.12
2018-04-18T15:04:43.964Z,24.70
2018-04-18T15:07:11.495Z,26.27
2018-04-18T15:09:38.927Z,26.70
2018-04-18T15:12:06.395Z,27.15
2018-04-18T15:14:33.851Z,28.40
2018-04-18T15:17:01.308Z,28.10
2018-04-18T15:19:28.775Z,26.15
2018-04-18T15:21:56.235Z,27.90
2018-04-18T15:24:23.703Z,25.10
2018-04-18T15:26:51.181Z,25.77
2018-04-18T15:29:18.601Z,29.80
2018-04-18T15:31:46.085Z,27.20
2018-04-18T15:34:13.592Z,31.23
2018-04-18T15:36:41.800Z,23.08
2018-04-18T15:39:09.236Z,26.67
2018-04-18T15:41:36.678Z,26.27
2018-04-18T15:44:04.179Z,28.80
2018-04-18T15:46:31.603Z,26.92
2018-04-18T15:48:59.141Z,24.17
2018-04-18T15:51:26.572Z,24.17
2018-04-18T15:53:54.019Z,20.20
2018-04-18T15:56:21.478Z,24.25
2018-04-18T15:58:48.915Z,25.23
2018-04-18T16:01:16.357Z,23.10
2018-04-18T16:03:43.815Z,18.70
2018-04-18T16:06:11.259Z,18.62
2018-04-18T16:08:38.703Z,21.35
2018-04-18T16:11:06.904Z,23.17
2018-04-18T16:13:34.342Z,17.42
2018-04-18T16:16:01.782Z,22.77
2018-04-18T16:18:30.002Z,24.45
2018-04-18T16:20:57.491Z,17.35
2018-04-18T16:23:24.947Z,21.87
2018-04-18T16:25:52.382Z,24.92
2018-04-18T16:28:19.825Z,18.87
2018-04-18T16:30:47.264Z,19.20
2018-04-18T16:33:14.703Z,23.05
2018-04-18T16:35:42.919Z,20.62
2018-04-18T16:38:10.351Z,21.12
2018-04-18T16:40:38.567Z,23.50
2018-04-18T16:43:06.013Z,23.35
2018-04-18T16:45:33.447Z,22.02
2018-04-18T16:48:00.923Z,21.80
2018-04-18T16:50:28.402Z,19.00
2018-04-18T16:52:55.859Z,22.67
2018-04-18T16:55:23.312Z,28.95
2018-04-18T16:57:50.776Z,22.87
2018-04-18T17:00:18.262Z,23.87
2018-04-18T17:02:45.787Z,25.92
2018-04-18T17:05:13.238Z,27.35
2018-04-18T17:07:40.659Z,26.10
2018-04-18T17:10:08.893Z,27.92
2018-04-18T17:12:36.390Z,24.52
2018-04-18T17:15:04.606Z,26.48
2018-04-18T17:17:32.043Z,28.12
2018-04-18T17:19:59.476Z,26.87
2018-04-18T17:22:27.697Z,34.40
2018-04-18T17:24:55.145Z,33.63
2018-04-18T17:27:22.613Z,34.90
2018-04-18T17:29:50.075Z,34.87
2018-04-18T17:32:17.581Z,34.90
2018-04-18T17:34:45.779Z,34.65
2018-04-18T17:37:13.231Z,27.90
2018-04-18T17:39:40.740Z,29.23
2018-04-18T17:42:08.167Z,29.17
2018-04-18T17:44:35.604Z,28.00
2018-04-18T17:47:03.106Z,28.27
2018-04-18T17:49:30.577Z,25.45
2018-04-18T17:51:58.107Z,24.95
2018-04-18T17:54:25.563Z,23.25
2018-04-18T17:56:53.023Z,27.05
2018-04-18T17:59:20.610Z,26.45
2018-04-18T18:01:48.091Z,27.13
2018-04-18T18:04:16.416Z,25.10
2018-04-18T18:06:43.898Z,26.30
2018-04-18T18:09:11.333Z,23.90
2018-04-18T18:11:38.833Z,21.35
2018-04-18T18:14:06.359Z,26.92
2018-04-18T18:16:33.815Z,22.27
2018-04-18T18:19:01.263Z,24.55
2018-04-18T18:21:28.733Z,19.40
2018-04-18T18:23:56.175Z,23.98
2018-04-18T18:26:23.664Z,23.60
2018-04-18T18:28:51.105Z,22.87
2018-04-18T18:31:18.605Z,22.45
2018-04-18T18:33:46.814Z,18.48
2018-04-18T18:36:14.283Z,21.95
2018-04-18T18:38:41.731Z,21.50
2018-04-18T18:41:09.201Z,23.98
2018-04-18T18:43:36.651Z,23.00
2018-04-18T18:46:04.095Z,18.70
2018-04-18T18:48:31.577Z,26.23
2018-04-18T18:50:59.016Z,24.30
2018-04-18T18:53:26.471Z,21.02
2018-04-18T18:55:53.950Z,18.08
2018-04-18T18:58:21.400Z,16.45
2018-04-18T19:00:49.010Z,21.08
2018-04-18T19:03:17.226Z,16.60
2018-04-18T19:05:44.681Z,18.25
2018-04-18T19:08:12.142Z,18.00
2018-04-18T19:10:39.564Z,16.92
2018-04-18T19:13:07.888Z,17.33
2018-04-18T19:15:35.369Z,19.98
2018-04-18T19:18:02.787Z,17.05
2018-04-18T19:20:30.258Z,24.37
2018-04-18T19:22:57.707Z,19.17
2018-04-18T19:25:25.280Z,21.20
2018-04-18T19:27:52.770Z,25.33
2018-04-18T19:30:20.233Z,39.25
2018-04-18T19:32:47.668Z,28.02
2018-04-18T19:35:15.324Z,28.55
2018-04-18T19:37:42.784Z,28.62
2018-04-18T19:40:10.235Z,20.30
2018-04-18T19:42:37.694Z,20.37
2018-04-18T19:45:05.142Z,18.98
2018-04-18T19:47:32.580Z,29.95
2018-04-18T19:50:00.037Z,25.58
2018-04-18T19:52:27.496Z,21.70
2018-04-18T19:54:54.978Z,28.10
2018-04-18T19:57:22.432Z,27.62
2018-04-18T19:59:49.895Z,22.45
2018-04-18T20:02:17.339Z,16.50
2018-04-18T20:04:44.786Z,19.33
2018-04-18T20:07:12.222Z,19.75
2018-04-18T20:09:39.707Z,20.87
2018-04-18T20:12:07.157Z,21.95
2018-04-18T20:14:34.652Z,17.02
2018-04-18T20:17:02.089Z,18.27
2018-04-18T20:19:29.535Z,18.40
2018-04-18T20:21:56.993Z,19.87
2018-04-18T20:24:24.455Z,20.97
2018-04-18T20:26:51.920Z,17.23
2018-04-18T20:29:19.350Z,16.65
2018-04-18T20:31:46.791Z,14.03
2018-04-18T20:34:14.266Z,20.62
2018-04-18T20:36:48.412Z,19.90
2018-04-18T20:39:15.859Z,27.67
2018-04-18T20:41:43.299Z,22.27
2018-04-18T20:44:10.770Z,24.10
2018-04-18T20:46:38.216Z,22.40
2018-04-18T20:49:05.667Z,37.60
2018-04-18T20:51:33.115Z,33.87
2018-04-18T20:54:00.555Z,24.27
2018-04-18T20:56:27.996Z,59.63
2018-04-18T20:58:55.475Z,30.17
2018-04-18T21:01:22.952Z,35.33
2018-04-18T21:03:50.409Z,25.77
2018-04-18T21:06:17.884Z,25.43
2018-04-18T21:08:45.323Z,19.23
2018-04-18T21:11:12.776Z,20.90
2018-04-18T21:13:40.272Z,22.50
2018-04-18T21:16:07.723Z,25.33
2018-04-18T21:18:35.159Z,15.00
2018-04-18T21:21:02.606Z,15.10
2018-04-18T21:23:30.053Z,21.23
2018-04-18T21:25:57.519Z,14.60
2018-04-18T21:28:25.095Z,11.97
2018-04-18T21:30:52.529Z,13.73
2018-04-18T21:33:19.975Z,30.47
2018-04-18T21:35:47.446Z,23.80
2018-04-18T21:38:14.965Z,19.63
2018-04-18T21:40:43.183Z,16.87
2018-04-18T21:43:10.616Z,18.93
2018-04-18T21:45:38.073Z,21.07
2018-04-18T21:48:06.278Z,19.80
2018-04-18T21:50:33.741Z,21.07
2018-04-18T21:53:01.198Z,25.20
2018-04-18T21:55:28.637Z,22.30
2018-04-18T21:57:56.091Z,20.47
2018-04-18T22:00:23.599Z,22.80
2018-04-18T22:02:51.071Z,21.63
2018-04-18T22:05:19.299Z,17.93
2018-04-18T22:07:46.751Z,21.27
2018-04-18T22:10:14.276Z,20.23
2018-04-18T22:12:42.482Z,22.47
2018-04-18T22:15:09.935Z,28.37
2018-04-18T22:17:37.446Z,22.77
2018-04-18T22:20:04.889Z,19.07
2018-04-18T22:22:32.329Z,18.33
2018-04-18T22:24:59.771Z,18.52
2018-04-18T22:27:27.241Z,19.50
2018-04-18T22:29:54.794Z,22.27
2018-04-18T22:32:22.237Z,19.83
2018-04-18T22:34:49.727Z,14.77
2018-04-18T22:37:17.185Z,29.37
2018-04-18T22:39:44.633Z,22.07
2018-04-18T22:42:12.182Z,25.43
2018-04-18T22:44:39.632Z,26.77
2018-04-18T22:47:07.084Z,23.07
2018-04-18T22:49:34.590Z,24.03
2018-04-18T22:52:02.033Z,22.90
2018-04-18T22:54:29.507Z,24.20
2018-04-18T22:56:57.731Z,24.30
2018-04-18T22:59:25.189Z,26.60
2018-04-18T23:01:52.614Z,28.50
2018-04-18T23:04:20.831Z,25.37
2018-04-18T23:06:48.279Z,24.40
2018-04-18T23:09:15.721Z,28.87
2018-04-18T23:11:43.199Z,27.30
2018-04-18T23:14:10.654Z,29.47
2018-04-18T23:16:38.115Z,31.40
2018-04-18T23:19:05.551Z,23.50
2018-04-18T23:21:32.992Z,27.42
2018-04-18T23:24:01.197Z,28.00
2018-04-18T23:26:28.648Z,28.87
2018-04-18T23:28:56.077Z,26.07
2018-04-18T23:31:24.294Z,27.57
2018-04-18T23:33:51.744Z,28.77
2018-04-18T23:36:19.215Z,33.83
2018-04-18T23:38:46.643Z,28.20
2018-04-18T23:41:14.128Z,31.17
2018-04-18T23:43:42.329Z,30.47
2018-04-18T23:46:09.796Z,29.30
2018-04-18T23:48:37.255Z,30.70
2018-04-18T23:51:04.698Z,29.93
2018-04-18T23:53:32.139Z,26.07
2018-04-18T23:55:59.593Z,31.37
2018-04-18T23:58:27.019Z,29.10
